Time;durP1;ratioP1;P1;durP2;ratioP2;P2;SDS_P1;SDS_P2;PMS_P1;PMS_P2;Temp;Humidity;BMP_temperature;BMP_pressure;BME280_temperature;BME280_humidity;BME280_pressure;Samples;Min_cycle;Max_cycle;Signal;HPM_P1;HPM_P2
2022/09/17 00:01:04;;;;;;;12.43;9.70;;;;;;;11.20;100.00;98228.84;1768139;80;20085;-71
2022/09/17 00:03:35;;;;;;;12.78;9.58;;;;;;;11.20;100.00;98228.05;1762084;81;20967;-71
2022/09/17 00:06:05;;;;;;;13.13;9.63;;;;;;;11.22;100.00;98232.04;1767438;80;21227;-70
2022/09/17 00:08:34;;;;;;;18.45;10.90;;;;;;;11.26;100.00;98238.95;1767833;80;20927;-70
2022/09/17 00:11:20;;;;;;;27.82;11.95;;;;;;;11.28;100.00;98251.01;1789224;80;20965;-70
2022/09/17 00:13:49;;;;;;;15.50;10.75;;;;;;;11.30;100.00;98254.76;1785438;79;20865;-70
2022/09/17 00:16:26;;;;;;;29.07;14.43;;;;;;;11.30;100.00;98254.76;1791635;80;20903;-70
2022/09/17 00:18:52;;;;;;;27.85;13.98;;;;;;;11.26;100.00;98249.16;1793161;80;21492;-70
2022/09/17 00:21:19;;;;;;;32.67;15.10;;;;;;;11.19;100.00;98243.34;1793185;80;20988;-70
2022/09/17 00:23:46;;;;;;;28.38;15.20;;;;;;;11.14;100.00;98250.13;1783078;79;20896;-70
2022/09/17 00:26:13;;;;;;;32.73;16.23;;;;;;;11.15;100.00;98249.05;1739707;82;20928;-71
2022/09/17 00:28:44;;;;;;;27.90;14.38;;;;;;;11.18;100.00;98259.20;1730495;82;20964;-71
2022/09/17 00:31:08;;;;;;;28.38;14.13;;;;;;;11.19;100.00;98268.85;1786056;80;21252;-70
2022/09/17 00:33:36;;;;;;;19.65;12.78;;;;;;;11.20;100.00;98275.84;1782683;80;20907;-70
2022/09/17 00:36:04;;;;;;;24.52;11.50;;;;;;;11.20;100.00;98284.45;1758482;80;20966;-70
2022/09/17 22:56:47;;;;;;;44.63;34.00;;;;;;;13.12;100.00;97906.81;1746771;81;20914;-69
2022/09/17 22:59:16;;;;;;;43.83;33.78;;;;;;;13.20;100.00;97904.14;1743599;82;21406;-69
2022/09/17 23:01:43;;;;;;;44.15;33.23;;;;;;;13.23;100.00;97887.38;1745115;81;21029;-69
2022/09/17 23:04:10;;;;;;;37.93;32.10;;;;;;;13.29;100.00;97886.14;1735640;82;21501;-69
2022/09/17 23:06:40;;;;;;;50.78;33.05;;;;;;;13.36;100.00;97903.22;1742264;81;20850;-68
2022/09/17 23:09:07;;;;;;;42.80;33.85;;;;;;;13.38;100.00;97902.35;1749211;82;21360;-69
2022/09/17 23:11:37;;;;;;;45.45;33.90;;;;;;;13.40;100.00;97907.41;1746103;81;20964;-69
2022/09/17 23:14:11;;;;;;;44.65;33.80;;;;;;;13.39;100.00;97912.02;1745877;82;20925;-69
2022/09/17 23:16:43;;;;;;;43.02;33.60;;;;;;;13.47;100.00;97898.32;1743566;81;20911;-69
2022/09/17 23:19:10;;;;;;;43.78;33.73;;;;;;;13.46;100.00;97890.01;1746840;82;20877;-69
2022/09/17 23:21:38;;;;;;;44.25;34.65;;;;;;;13.46;100.00;97875.19;1745282;81;21994;-69
2022/09/17 23:24:05;;;;;;;50.58;37.15;;;;;;;13.46;100.00;97867.10;1745892;81;20921;-68
2022/09/17 23:26:32;;;;;;;50.12;36.05;;;;;;;13.41;100.00;97861.86;1746543;82;20984;-69
2022/09/17 23:29:01;;;;;;;51.42;37.65;;;;;;;13.36;100.00;97852.02;1744447;81;20888;-68
2022/09/17 23:31:28;;;;;;;52.40;39.20;;;;;;;13.31;100.00;97844.08;1747021;82;20917;-68
2022/09/17 23:33:55;;;;;;;53.95;38.67;;;;;;;13.27;100.00;97831.77;1745524;81;21264;-68
2022/09/17 23:36:26;;;;;;;58.13;41.48;;;;;;;13.29;100.00;97838.20;1745710;82;21004;-68
2022/09/17 23:38:55;;;;;;;53.15;38.85;;;;;;;13.32;100.00;97828.70;1743897;81;20968;-69
2022/09/17 23:41:26;;;;;;;51.93;37.67;;;;;;;13.32;100.00;97809.28;1729432;82;21021;-69
2022/09/17 23:43:55;;;;;;;54.30;37.70;;;;;;;13.32;100.00;97809.28;1691901;84;21000;-69
2022/09/17 23:46:23;;;;;;;56.53;41.53;;;;;;;13.28;100.00;97811.82;1673662;85;21238;-68
2022/09/17 23:48:52;;;;;;;57.20;39.20;;;;;;;13.24;100.00;97818.91;1726963;82;20951;-68
2022/09/17 23:51:21;;;;;;;62.30;41.58;;;;;;;13.28;100.00;97801.05;1727830;82;20911;-68
2022/09/17 23:53:48;;;;;;;57.48;40.08;;;;;;;13.35;100.00;97805.98;1728643;83;20895;-68
2022/09/17 23:56:18;;;;;;;60.35;40.03;;;;;;;13.35;100.00;97804.63;1728516;83;20959;-69
2022/09/17 23:58:45;;;;;;;58.55;39.48;;;;;;;13.34;100.00;97804.94;1728096;82;21241;-68
